Terminal Aerodrome Forecast
Issued by NWS Upton, NY

Home | Current Version | Previous Version | Text Only | Print | Product List | Glossary On
Versions: 1 2 3 4 5 6 7 8 9 10 11 12 13 14 15 16 17 18 19 20 21 22 23 24 25 26 27 28 29 30 31 32
000
FTUS41 KOKX 312000 AAA
TAFJFK
TAF AMD
KJFK 312032Z 3121/0124 18012G18KT P6SM SCT050 SCT250
     FM010100 19008KT P6SM SCT250
     FM010600 VRB04KT P6SM BKN250
     FM011400 18008KT P6SM BKN200
     FM011800 16010KT P6SM BKN100=

USA.gov is the U.S. government's official web portal to all federal, state and local government web resources and services.